sensor_id;sensor_type;location;lat;lon;timestamp;P1;P2;P0
72307;PMS5003;60257;42.638;23.376;2023-02-15T00:00:02;84.75;67.00;39.00
72307;PMS5003;60257;42.638;23.376;2023-02-15T00:02:33;81.25;64.25;39.75
72307;PMS5003;60257;42.638;23.376;2023-02-15T00:04:58;81.75;63.00;33.50
72307;PMS5003;60257;42.638;23.376;2023-02-15T00:07:24;82.25;64.25;35.75
72307;PMS5003;60257;42.638;23.376;2023-02-15T00:09:49;82.25;66.25;37.00
72307;PMS5003;60257;42.638;23.376;2023-02-15T00:12:15;85.75;67.00;38.75
72307;PMS5003;60257;42.638;23.376;2023-02-15T00:14:40;80.25;63.75;38.25
72307;PMS5003;60257;42.638;23.376;2023-02-15T00:17:07;84.25;68.00;39.75
72307;PMS5003;60257;42.638;23.376;2023-02-15T00:19:32;83.00;65.75;37.00
72307;PMS5003;60257;42.638;23.376;2023-02-15T00:21:58;78.25;58.00;34.00
72307;PMS5003;60257;42.638;23.376;2023-02-15T00:24:23;83.50;65.00;35.50
72307;PMS5003;60257;42.638;23.376;2023-02-15T00:26:49;87.50;66.25;35.25
72307;PMS5003;60257;42.638;23.376;2023-02-15T00:29:15;89.00;66.25;37.50
72307;PMS5003;60257;42.638;23.376;2023-02-15T00:31:42;86.50;66.75;36.00
72307;PMS5003;60257;42.638;23.376;2023-02-15T00:34:11;81.00;63.75;34.50
72307;PMS5003;60257;42.638;23.376;2023-02-15T00:36:39;85.00;65.50;36.75
72307;PMS5003;60257;42.638;23.376;2023-02-15T00:39:05;82.00;63.25;38.25
72307;PMS5003;60257;42.638;23.376;2023-02-15T00:41:31;87.00;65.75;36.00
72307;PMS5003;60257;42.638;23.376;2023-02-15T00:43:57;74.25;59.00;34.00
72307;PMS5003;60257;42.638;23.376;2023-02-15T00:46:23;86.50;64.25;37.25
72307;PMS5003;60257;42.638;23.376;2023-02-15T00:48:48;83.50;65.50;41.00
72307;PMS5003;60257;42.638;23.376;2023-02-15T00:51:14;85.50;66.00;39.00
72307;PMS5003;60257;42.638;23.376;2023-02-15T00:53:43;84.75;67.75;38.50
72307;PMS5003;60257;42.638;23.376;2023-02-15T00:56:09;73.00;54.75;29.25
72307;PMS5003;60257;42.638;23.376;2023-02-15T00:58:35;83.50;63.75;38.00
72307;PMS5003;60257;42.638;23.376;2023-02-15T01:01:09;78.50;62.25;36.25
72307;PMS5003;60257;42.638;23.376;2023-02-15T01:03:36;80.00;64.75;38.50
72307;PMS5003;60257;42.638;23.376;2023-02-15T01:06:02;83.75;65.00;37.50
72307;PMS5003;60257;42.638;23.376;2023-02-15T01:08:28;80.00;65.25;36.50
72307;PMS5003;60257;42.638;23.376;2023-02-15T01:10:54;75.75;60.75;35.00
72307;PMS5003;60257;42.638;23.376;2023-02-15T01:13:20;84.00;66.50;39.75
72307;PMS5003;60257;42.638;23.376;2023-02-15T01:15:45;85.25;65.00;35.00
72307;PMS5003;60257;42.638;23.376;2023-02-15T01:18:16;83.25;67.25;38.75
72307;PMS5003;60257;42.638;23.376;2023-02-15T01:20:42;82.75;64.75;37.50
72307;PMS5003;60257;42.638;23.376;2023-02-15T01:23:08;86.00;66.50;39.50
72307;PMS5003;60257;42.638;23.376;2023-02-15T01:25:34;83.25;64.00;37.50
72307;PMS5003;60257;42.638;23.376;2023-02-15T01:28:00;83.25;64.00;36.50
72307;PMS5003;60257;42.638;23.376;2023-02-15T01:30:26;86.25;69.25;39.75
72307;PMS5003;60257;42.638;23.376;2023-02-15T01:32:51;84.00;65.25;37.00
72307;PMS5003;60257;42.638;23.376;2023-02-15T01:35:17;84.25;64.75;36.00
72307;PMS5003;60257;42.638;23.376;2023-02-15T01:37:42;80.00;63.50;37.75
72307;PMS5003;60257;42.638;23.376;2023-02-15T01:40:11;90.25;66.50;39.50
72307;PMS5003;60257;42.638;23.376;2023-02-15T01:42:39;75.00;59.75;32.50
72307;PMS5003;60257;42.638;23.376;2023-02-15T01:45:18;86.50;66.00;38.00
72307;PMS5003;60257;42.638;23.376;2023-02-15T01:47:58;82.25;63.00;37.25
72307;PMS5003;60257;42.638;23.376;2023-02-15T01:55:50;80.25;64.00;39.50
72307;PMS5003;60257;42.638;23.376;2023-02-15T01:58:22;81.00;62.75;33.50
72307;PMS5003;60257;42.638;23.376;2023-02-15T02:00:51;72.75;61.00;33.25
72307;PMS5003;60257;42.638;23.376;2023-02-15T02:03:20;84.75;65.50;39.75
72307;PMS5003;60257;42.638;23.376;2023-02-15T02:06:06;77.50;60.25;32.50
72307;PMS5003;60257;42.638;23.376;2023-02-15T02:08:31;80.50;65.50;35.50
72307;PMS5003;60257;42.638;23.376;2023-02-15T02:10:57;77.75;63.75;38.50
72307;PMS5003;60257;42.638;23.376;2023-02-15T02:13:22;58.00;51.75;35.00
72307;PMS5003;60257;42.638;23.376;2023-02-15T02:15:54;87.00;65.00;35.00
72307;PMS5003;60257;42.638;23.376;2023-02-15T02:23:47;71.50;60.25;33.00
72307;PMS5003;60257;42.638;23.376;2023-02-15T02:35:22;73.00;61.75;34.00
72307;PMS5003;60257;42.638;23.376;2023-02-15T02:38:03;81.25;61.75;32.00
72307;PMS5003;60257;42.638;23.376;2023-02-15T02:40:55;84.00;66.25;38.00
72307;PMS5003;60257;42.638;23.376;2023-02-15T02:46:44;81.25;62.25;35.00
72307;PMS5003;60257;42.638;23.376;2023-02-15T02:49:33;82.75;65.75;36.00
72307;PMS5003;60257;42.638;23.376;2023-02-15T02:52:52;81.00;62.75;37.00
72307;PMS5003;60257;42.638;23.376;2023-02-15T02:55:03;70.75;59.25;33.75
72307;PMS5003;60257;42.638;23.376;2023-02-15T02:57:35;74.25;60.75;35.00
72307;PMS5003;60257;42.638;23.376;2023-02-15T03:00:05;76.00;60.75;33.50
72307;PMS5003;60257;42.638;23.376;2023-02-15T03:02:35;75.00;59.75;34.25
72307;PMS5003;60257;42.638;23.376;2023-02-15T03:05:08;70.00;60.00;34.00
72307;PMS5003;60257;42.638;23.376;2023-02-15T03:07:38;81.25;64.00;38.50
72307;PMS5003;60257;42.638;23.376;2023-02-15T03:10:06;84.00;63.25;34.50
72307;PMS5003;60257;42.638;23.376;2023-02-15T03:12:35;74.75;62.75;36.25
72307;PMS5003;60257;42.638;23.376;2023-02-15T03:15:14;72.75;58.50;34.75
72307;PMS5003;60257;42.638;23.376;2023-02-15T03:17:45;73.75;59.25;34.50
72307;PMS5003;60257;42.638;23.376;2023-02-15T03:20:35;73.50;60.75;37.75
72307;PMS5003;60257;42.638;23.376;2023-02-15T03:23:04;80.50;61.50;35.00
72307;PMS5003;60257;42.638;23.376;2023-02-15T03:25:37;80.00;62.25;37.50
72307;PMS5003;60257;42.638;23.376;2023-02-15T03:28:07;77.25;61.25;35.00
72307;PMS5003;60257;42.638;23.376;2023-02-15T03:30:38;83.75;67.50;39.25
72307;PMS5003;60257;42.638;23.376;2023-02-15T03:33:08;80.00;60.75;38.50
72307;PMS5003;60257;42.638;23.376;2023-02-15T03:35:46;71.50;55.00;29.50
72307;PMS5003;60257;42.638;23.376;2023-02-15T03:38:20;78.50;59.75;35.75
72307;PMS5003;60257;42.638;23.376;2023-02-15T03:40:59;79.00;61.00;36.00
72307;PMS5003;60257;42.638;23.376;2023-02-15T03:43:51;72.00;57.50;33.50
72307;PMS5003;60257;42.638;23.376;2023-02-15T03:46:28;80.00;63.25;35.00
72307;PMS5003;60257;42.638;23.376;2023-02-15T03:49:01;69.50;55.75;31.75
72307;PMS5003;60257;42.638;23.376;2023-02-15T03:51:32;78.50;62.00;34.75
72307;PMS5003;60257;42.638;23.376;2023-02-15T03:54:04;79.50;63.75;36.50
72307;PMS5003;60257;42.638;23.376;2023-02-15T03:56:36;70.50;54.50;33.25
72307;PMS5003;60257;42.638;23.376;2023-02-15T03:59:04;77.25;60.50;34.00
72307;PMS5003;60257;42.638;23.376;2023-02-15T04:04:27;74.25;59.00;33.25
72307;PMS5003;60257;42.638;23.376;2023-02-15T04:07:12;73.00;60.25;35.00
72307;PMS5003;60257;42.638;23.376;2023-02-15T04:09:38;69.50;53.50;30.50
72307;PMS5003;60257;42.638;23.376;2023-02-15T04:12:22;70.00;54.75;32.00
72307;PMS5003;60257;42.638;23.376;2023-02-15T04:14:48;74.75;60.25;31.25
72307;PMS5003;60257;42.638;23.376;2023-02-15T04:17:32;77.75;61.00;35.00
72307;PMS5003;60257;42.638;23.376;2023-02-15T04:19:57;72.00;58.00;33.00
72307;PMS5003;60257;42.638;23.376;2023-02-15T04:22:42;73.75;56.50;36.00
72307;PMS5003;60257;42.638;23.376;2023-02-15T04:25:26;81.00;62.25;34.25
72307;PMS5003;60257;42.638;23.376;2023-02-15T04:27:52;76.50;61.75;34.00
72307;PMS5003;60257;42.638;23.376;2023-02-15T04:30:19;64.50;50.00;25.75
72307;PMS5003;60257;42.638;23.376;2023-02-15T04:32:47;77.25;60.25;34.00
72307;PMS5003;60257;42.638;23.376;2023-02-15T04:35:13;70.75;58.75;33.75
72307;PMS5003;60257;42.638;23.376;2023-02-15T04:37:39;75.50;62.25;35.00
72307;PMS5003;60257;42.638;23.376;2023-02-15T04:40:06;82.25;63.00;36.25
72307;PMS5003;60257;42.638;23.376;2023-02-15T04:42:32;81.00;63.25;36.00
72307;PMS5003;60257;42.638;23.376;2023-02-15T04:44:58;66.75;48.75;28.25
72307;PMS5003;60257;42.638;23.376;2023-02-15T04:47:23;83.50;64.50;37.50
72307;PMS5003;60257;42.638;23.376;2023-02-15T04:49:49;70.25;59.50;33.00
72307;PMS5003;60257;42.638;23.376;2023-02-15T04:52:15;66.75;54.50;33.50
72307;PMS5003;60257;42.638;23.376;2023-02-15T04:54:42;74.25;61.25;34.25
72307;PMS5003;60257;42.638;23.376;2023-02-15T04:57:07;82.25;62.00;34.25
72307;PMS5003;60257;42.638;23.376;2023-02-15T04:59:33;76.50;61.25;37.75
72307;PMS5003;60257;42.638;23.376;2023-02-15T05:01:58;79.25;63.00;35.00
72307;PMS5003;60257;42.638;23.376;2023-02-15T05:04:24;75.50;62.25;35.00
72307;PMS5003;60257;42.638;23.376;2023-02-15T05:06:49;70.75;57.75;34.25
72307;PMS5003;60257;42.638;23.376;2023-02-15T05:09:15;69.50;59.25;34.75
72307;PMS5003;60257;42.638;23.376;2023-02-15T05:11:40;77.25;58.25;33.25
72307;PMS5003;60257;42.638;23.376;2023-02-15T05:14:06;74.50;60.25;34.00
72307;PMS5003;60257;42.638;23.376;2023-02-15T05:16:32;69.50;55.25;37.50
72307;PMS5003;60257;42.638;23.376;2023-02-15T05:18:57;73.50;59.25;34.00
72307;PMS5003;60257;42.638;23.376;2023-02-15T05:21:23;78.00;60.00;38.25
72307;PMS5003;60257;42.638;23.376;2023-02-15T05:23:48;75.75;61.50;34.50
72307;PMS5003;60257;42.638;23.376;2023-02-15T05:26:16;78.75;62.25;33.25
72307;PMS5003;60257;42.638;23.376;2023-02-15T05:29:02;70.75;58.75;33.75
72307;PMS5003;60257;42.638;23.376;2023-02-15T05:31:28;70.25;54.50;32.00
72307;PMS5003;60257;42.638;23.376;2023-02-15T05:33:53;71.00;59.25;34.00
72307;PMS5003;60257;42.638;23.376;2023-02-15T05:36:19;4.25;4.25;4.25
72307;PMS5003;60257;42.638;23.376;2023-02-15T05:38:44;78.75;60.75;38.75
72307;PMS5003;60257;42.638;23.376;2023-02-15T05:41:10;64.75;50.75;25.50
72307;PMS5003;60257;42.638;23.376;2023-02-15T05:43:37;88.25;66.00;36.25
72307;PMS5003;60257;42.638;23.376;2023-02-15T05:46:03;69.50;58.00;34.25
72307;PMS5003;60257;42.638;23.376;2023-02-15T05:48:30;77.00;60.75;33.25
72307;PMS5003;60257;42.638;23.376;2023-02-15T05:50:57;74.75;58.00;33.50
72307;PMS5003;60257;42.638;23.376;2023-02-15T05:53:31;73.75;57.25;33.00
72307;PMS5003;60257;42.638;23.376;2023-02-15T05:55:57;70.50;56.25;32.00
72307;PMS5003;60257;42.638;23.376;2023-02-15T05:58:31;69.50;55.75;34.25
72307;PMS5003;60257;42.638;23.376;2023-02-15T06:00:58;72.50;58.25;34.00
72307;PMS5003;60257;42.638;23.376;2023-02-15T06:03:24;71.25;56.75;32.00
72307;PMS5003;60257;42.638;23.376;2023-02-15T06:05:51;77.50;62.25;36.00
72307;PMS5003;60257;42.638;23.376;2023-02-15T06:08:17;72.75;55.50;30.25
72307;PMS5003;60257;42.638;23.376;2023-02-15T06:10:43;71.00;55.50;32.25
72307;PMS5003;60257;42.638;23.376;2023-02-15T06:13:10;62.75;49.75;30.25
72307;PMS5003;60257;42.638;23.376;2023-02-15T06:15:35;73.75;58.00;32.25
72307;PMS5003;60257;42.638;23.376;2023-02-15T06:18:01;70.25;53.75;33.25
72307;PMS5003;60257;42.638;23.376;2023-02-15T06:20:27;69.75;55.50;31.00
72307;PMS5003;60257;42.638;23.376;2023-02-15T06:22:52;69.00;54.75;31.25
72307;PMS5003;60257;42.638;23.376;2023-02-15T06:25:18;73.00;59.50;34.75
72307;PMS5003;60257;42.638;23.376;2023-02-15T06:27:43;80.50;63.00;38.75
72307;PMS5003;60257;42.638;23.376;2023-02-15T06:30:09;68.00;54.50;28.75
72307;PMS5003;60257;42.638;23.376;2023-02-15T06:32:36;70.00;53.50;33.00
72307;PMS5003;60257;42.638;23.376;2023-02-15T06:35:01;55.00;45.50;18.75
72307;PMS5003;60257;42.638;23.376;2023-02-15T06:37:27;70.75;55.75;29.00
72307;PMS5003;60257;42.638;23.376;2023-02-15T06:39:53;71.50;60.00;33.00
72307;PMS5003;60257;42.638;23.376;2023-02-15T06:42:18;63.75;50.25;30.00
72307;PMS5003;60257;42.638;23.376;2023-02-15T06:44:44;72.25;57.50;31.50
72307;PMS5003;60257;42.638;23.376;2023-02-15T06:47:10;84.00;60.00;34.50
72307;PMS5003;60257;42.638;23.376;2023-02-15T06:49:36;72.25;55.50;28.75
72307;PMS5003;60257;42.638;23.376;2023-02-15T06:52:02;65.00;52.50;29.75
72307;PMS5003;60257;42.638;23.376;2023-02-15T06:54:28;62.50;54.50;32.75
72307;PMS5003;60257;42.638;23.376;2023-02-15T06:56:53;73.50;58.25;35.00
72307;PMS5003;60257;42.638;23.376;2023-02-15T06:59:19;54.50;47.25;29.50
72307;PMS5003;60257;42.638;23.376;2023-02-15T07:01:44;70.00;54.75;31.00
72307;PMS5003;60257;42.638;23.376;2023-02-15T07:04:10;73.75;59.25;31.00
72307;PMS5003;60257;42.638;23.376;2023-02-15T07:06:35;68.50;53.50;31.75
72307;PMS5003;60257;42.638;23.376;2023-02-15T07:09:01;69.50;55.75;33.00
72307;PMS5003;60257;42.638;23.376;2023-02-15T07:11:26;65.25;51.50;30.75
72307;PMS5003;60257;42.638;23.376;2023-02-15T07:14:11;67.50;52.75;30.00
72307;PMS5003;60257;42.638;23.376;2023-02-15T07:16:36;51.00;45.75;26.50
72307;PMS5003;60257;42.638;23.376;2023-02-15T07:19:01;63.00;50.25;26.75
72307;PMS5003;60257;42.638;23.376;2023-02-15T07:21:27;51.25;44.75;27.25
72307;PMS5003;60257;42.638;23.376;2023-02-15T07:23:55;59.25;46.25;27.00
72307;PMS5003;60257;42.638;23.376;2023-02-15T07:26:21;62.25;48.00;23.50
72307;PMS5003;60257;42.638;23.376;2023-02-15T07:28:47;66.50;54.00;31.00
72307;PMS5003;60257;42.638;23.376;2023-02-15T07:31:12;63.50;52.75;29.50
72307;PMS5003;60257;42.638;23.376;2023-02-15T07:33:41;60.00;47.75;28.75
72307;PMS5003;60257;42.638;23.376;2023-02-15T07:36:06;63.75;50.00;27.50
72307;PMS5003;60257;42.638;23.376;2023-02-15T07:38:38;68.25;51.50;29.75
72307;PMS5003;60257;42.638;23.376;2023-02-15T07:41:09;62.25;50.75;28.50
72307;PMS5003;60257;42.638;23.376;2023-02-15T07:43:38;71.50;57.75;36.75
72307;PMS5003;60257;42.638;23.376;2023-02-15T07:46:07;61.00;47.00;28.25
72307;PMS5003;60257;42.638;23.376;2023-02-15T07:48:35;67.75;53.75;32.00
72307;PMS5003;60257;42.638;23.376;2023-02-15T07:51:02;57.50;47.75;27.00
72307;PMS5003;60257;42.638;23.376;2023-02-15T07:53:29;62.50;49.75;28.25
72307;PMS5003;60257;42.638;23.376;2023-02-15T07:55:58;58.00;48.00;28.50
72307;PMS5003;60257;42.638;23.376;2023-02-15T07:58:24;52.50;44.50;27.00
72307;PMS5003;60257;42.638;23.376;2023-02-15T08:01:09;49.25;44.50;25.50
72307;PMS5003;60257;42.638;23.376;2023-02-15T08:03:34;68.75;50.50;30.00
72307;PMS5003;60257;42.638;23.376;2023-02-15T08:06:00;65.75;52.75;30.75
72307;PMS5003;60257;42.638;23.376;2023-02-15T08:08:26;57.50;48.00;30.00
72307;PMS5003;60257;42.638;23.376;2023-02-15T08:10:59;63.25;49.00;25.25
72307;PMS5003;60257;42.638;23.376;2023-02-15T08:13:44;65.50;54.00;30.00
72307;PMS5003;60257;42.638;23.376;2023-02-15T08:16:20;59.00;48.00;27.00
72307;PMS5003;60257;42.638;23.376;2023-02-15T08:18:47;57.25;48.25;28.00
72307;PMS5003;60257;42.638;23.376;2023-02-15T08:21:13;51.00;47.00;26.00
72307;PMS5003;60257;42.638;23.376;2023-02-15T08:23:38;43.00;41.00;23.25
72307;PMS5003;60257;42.638;23.376;2023-02-15T08:26:04;48.75;41.75;24.75
72307;PMS5003;60257;42.638;23.376;2023-02-15T08:28:30;59.50;47.25;26.00
72307;PMS5003;60257;42.638;23.376;2023-02-15T08:31:03;54.50;44.75;26.25
72307;PMS5003;60257;42.638;23.376;2023-02-15T08:33:33;54.75;47.00;27.00
72307;PMS5003;60257;42.638;23.376;2023-02-15T08:36:06;55.50;47.00;27.50
72307;PMS5003;60257;42.638;23.376;2023-02-15T08:38:36;48.00;43.75;26.00
72307;PMS5003;60257;42.638;23.376;2023-02-15T08:41:18;58.00;48.75;25.50
72307;PMS5003;60257;42.638;23.376;2023-02-15T08:43:46;54.25;44.50;25.75
72307;PMS5003;60257;42.638;23.376;2023-02-15T08:46:15;50.75;43.50;22.50
72307;PMS5003;60257;42.638;23.376;2023-02-15T08:48:41;56.50;47.00;27.50
72307;PMS5003;60257;42.638;23.376;2023-02-15T08:51:17;48.25;41.00;28.50
72307;PMS5003;60257;42.638;23.376;2023-02-15T08:53:49;57.25;47.75;27.50
72307;PMS5003;60257;42.638;23.376;2023-02-15T08:56:17;53.75;43.25;27.25
72307;PMS5003;60257;42.638;23.376;2023-02-15T08:58:44;60.00;46.75;23.25
72307;PMS5003;60257;42.638;23.376;2023-02-15T09:01:17;58.75;47.75;27.00
72307;PMS5003;60257;42.638;23.376;2023-02-15T09:03:46;62.50;49.25;28.25
72307;PMS5003;60257;42.638;23.376;2023-02-15T09:06:18;54.25;44.00;26.00
72307;PMS5003;60257;42.638;23.376;2023-02-15T09:08:43;58.75;48.75;29.25
72307;PMS5003;60257;42.638;23.376;2023-02-15T09:11:10;57.50;48.00;29.00
72307;PMS5003;60257;42.638;23.376;2023-02-15T09:16:25;53.75;46.50;25.25
72307;PMS5003;60257;42.638;23.376;2023-02-15T09:18:53;60.50;50.75;29.00
72307;PMS5003;60257;42.638;23.376;2023-02-15T09:21:20;51.75;45.25;28.25
72307;PMS5003;60257;42.638;23.376;2023-02-15T09:23:47;50.00;42.75;23.75
72307;PMS5003;60257;42.638;23.376;2023-02-15T09:26:19;64.25;50.00;28.00
72307;PMS5003;60257;42.638;23.376;2023-02-15T09:28:45;53.75;45.50;25.75
72307;PMS5003;60257;42.638;23.376;2023-02-15T09:31:17;56.00;47.25;26.25
72307;PMS5003;60257;42.638;23.376;2023-02-15T09:33:44;59.50;47.50;26.50
72307;PMS5003;60257;42.638;23.376;2023-02-15T09:36:45;70.00;57.75;33.25
72307;PMS5003;60257;42.638;23.376;2023-02-15T09:55:24;56.00;45.25;26.00
72307;PMS5003;60257;42.638;23.376;2023-02-15T10:01:02;51.75;41.75;20.25
72307;PMS5003;60257;42.638;23.376;2023-02-15T10:20:00;56.75;47.00;28.50
72307;PMS5003;60257;42.638;23.376;2023-02-15T10:22:38;54.75;44.75;29.00
72307;PMS5003;60257;42.638;23.376;2023-02-15T10:55:58;58.25;47.00;30.25
72307;PMS5003;60257;42.638;23.376;2023-02-15T10:58:47;63.75;51.75;29.00
72307;PMS5003;60257;42.638;23.376;2023-02-15T11:04:07;55.75;46.25;26.50
72307;PMS5003;60257;42.638;23.376;2023-02-15T11:06:57;66.25;53.75;29.00
72307;PMS5003;60257;42.638;23.376;2023-02-15T11:09:30;60.25;50.00;27.75
72307;PMS5003;60257;42.638;23.376;2023-02-15T11:12:04;64.50;51.25;29.50
72307;PMS5003;60257;42.638;23.376;2023-02-15T11:17:36;63.75;51.50;30.00
72307;PMS5003;60257;42.638;23.376;2023-02-15T11:22:54;63.25;48.00;26.25
72307;PMS5003;60257;42.638;23.376;2023-02-15T11:25:28;64.25;52.50;30.25
72307;PMS5003;60257;42.638;23.376;2023-02-15T11:27:57;64.75;53.50;30.75
72307;PMS5003;60257;42.638;23.376;2023-02-15T11:30:29;60.25;50.25;28.25
72307;PMS5003;60257;42.638;23.376;2023-02-15T11:33:13;63.50;50.25;28.75
72307;PMS5003;60257;42.638;23.376;2023-02-15T11:35:56;63.00;50.75;29.00
72307;PMS5003;60257;42.638;23.376;2023-02-15T11:38:26;51.25;45.25;28.50
72307;PMS5003;60257;42.638;23.376;2023-02-15T11:40:57;69.25;54.75;32.50
72307;PMS5003;60257;42.638;23.376;2023-02-15T11:43:32;65.50;51.75;30.25
72307;PMS5003;60257;42.638;23.376;2023-02-15T11:45:59;65.25;52.50;30.00
72307;PMS5003;60257;42.638;23.376;2023-02-15T11:48:25;56.50;48.25;28.75
72307;PMS5003;60257;42.638;23.376;2023-02-15T11:50:50;62.75;50.50;26.00
72307;PMS5003;60257;42.638;23.376;2023-02-15T11:53:20;61.50;51.75;29.00
72307;PMS5003;60257;42.638;23.376;2023-02-15T11:55:50;65.25;52.00;28.00
72307;PMS5003;60257;42.638;23.376;2023-02-15T12:06:28;61.50;52.75;31.00
72307;PMS5003;60257;42.638;23.376;2023-02-15T12:09:02;58.50;49.25;30.25
72307;PMS5003;60257;42.638;23.376;2023-02-15T12:11:38;65.50;52.00;30.50
72307;PMS5003;60257;42.638;23.376;2023-02-15T12:14:06;61.25;49.50;28.75
72307;PMS5003;60257;42.638;23.376;2023-02-15T12:16:43;59.75;49.50;30.00
72307;PMS5003;60257;42.638;23.376;2023-02-15T12:21:54;58.25;48.50;30.00
72307;PMS5003;60257;42.638;23.376;2023-02-15T12:24:56;66.50;50.50;28.50
72307;PMS5003;60257;42.638;23.376;2023-02-15T12:27:20;63.50;50.50;28.00
72307;PMS5003;60257;42.638;23.376;2023-02-15T12:29:50;67.50;54.50;29.50
72307;PMS5003;60257;42.638;23.376;2023-02-15T12:35:32;74.00;57.50;31.25
72307;PMS5003;60257;42.638;23.376;2023-02-15T12:40:35;68.00;55.00;32.75
72307;PMS5003;60257;42.638;23.376;2023-02-15T12:43:02;55.00;46.00;23.00
72307;PMS5003;60257;42.638;23.376;2023-02-15T12:45:35;67.50;53.00;30.00
72307;PMS5003;60257;42.638;23.376;2023-02-15T12:48:10;62.00;50.25;27.75
72307;PMS5003;60257;42.638;23.376;2023-02-15T12:50:38;65.75;54.25;31.00
72307;PMS5003;60257;42.638;23.376;2023-02-15T12:55:51;63.00;51.25;28.50
72307;PMS5003;60257;42.638;23.376;2023-02-15T12:58:20;63.00;48.50;28.75
72307;PMS5003;60257;42.638;23.376;2023-02-15T13:00:50;57.25;45.50;28.00
72307;PMS5003;60257;42.638;23.376;2023-02-15T13:03:26;44.50;41.75;23.00
72307;PMS5003;60257;42.638;23.376;2023-02-15T13:05:52;62.25;49.00;26.00
72307;PMS5003;60257;42.638;23.376;2023-02-15T13:10:56;66.50;51.75;30.25
72307;PMS5003;60257;42.638;23.376;2023-02-15T13:13:24;65.75;51.50;29.00
72307;PMS5003;60257;42.638;23.376;2023-02-15T13:16:02;56.75;44.75;29.50
72307;PMS5003;60257;42.638;23.376;2023-02-15T13:18:35;59.75;49.25;28.25
72307;PMS5003;60257;42.638;23.376;2023-02-15T13:21:10;68.50;56.25;32.00
72307;PMS5003;60257;42.638;23.376;2023-02-15T13:23:48;68.50;52.75;31.00
72307;PMS5003;60257;42.638;23.376;2023-02-15T13:26:19;65.50;53.00;28.75
72307;PMS5003;60257;42.638;23.376;2023-02-15T13:28:48;60.75;50.25;29.00
72307;PMS5003;60257;42.638;23.376;2023-02-15T13:31:18;68.00;53.00;30.50
72307;PMS5003;60257;42.638;23.376;2023-02-15T13:33:52;66.75;55.25;31.00
72307;PMS5003;60257;42.638;23.376;2023-02-15T13:41:32;69.00;52.00;29.00
72307;PMS5003;60257;42.638;23.376;2023-02-15T13:44:09;58.75;48.00;22.25
72307;PMS5003;60257;42.638;23.376;2023-02-15T13:46:44;70.75;54.75;31.00
72307;PMS5003;60257;42.638;23.376;2023-02-15T13:54:36;68.50;54.00;32.25
72307;PMS5003;60257;42.638;23.376;2023-02-15T14:17:11;59.50;50.50;28.75
72307;PMS5003;60257;42.638;23.376;2023-02-15T14:20:07;67.75;55.75;30.00
72307;PMS5003;60257;42.638;23.376;2023-02-15T14:23:11;64.00;51.75;29.25
72307;PMS5003;60257;42.638;23.376;2023-02-15T14:25:45;70.75;56.00;31.00
72307;PMS5003;60257;42.638;23.376;2023-02-15T14:28:19;64.75;54.00;29.25
72307;PMS5003;60257;42.638;23.376;2023-02-15T14:30:53;66.75;50.00;26.50
72307;PMS5003;60257;42.638;23.376;2023-02-15T14:36:20;45.75;40.50;25.00
72307;PMS5003;60257;42.638;23.376;2023-02-15T14:42:14;71.50;57.25;32.25
72307;PMS5003;60257;42.638;23.376;2023-02-15T14:44:51;72.75;58.25;33.00
72307;PMS5003;60257;42.638;23.376;2023-02-15T14:47:24;67.50;57.25;31.75
72307;PMS5003;60257;42.638;23.376;2023-02-15T14:49:55;69.00;57.25;33.50
72307;PMS5003;60257;42.638;23.376;2023-02-15T14:52:21;71.50;56.75;31.00
72307;PMS5003;60257;42.638;23.376;2023-02-15T15:07:54;59.50;48.75;27.25
72307;PMS5003;60257;42.638;23.376;2023-02-15T15:12:54;60.00;48.75;30.25
72307;PMS5003;60257;42.638;23.376;2023-02-15T15:17:53;69.75;55.50;31.25
72307;PMS5003;60257;42.638;23.376;2023-02-15T15:22:51;63.00;54.25;32.00
72307;PMS5003;60257;42.638;23.376;2023-02-15T15:25:43;69.75;57.75;31.25
72307;PMS5003;60257;42.638;23.376;2023-02-15T15:42:06;78.50;61.50;37.50
72307;PMS5003;60257;42.638;23.376;2023-02-15T15:44:53;67.00;50.50;30.00
72307;PMS5003;60257;42.638;23.376;2023-02-15T15:48:02;78.00;62.00;35.25
72307;PMS5003;60257;42.638;23.376;2023-02-15T15:50:41;67.50;55.00;30.75
72307;PMS5003;60257;42.638;23.376;2023-02-15T15:53:10;71.50;57.50;34.25
72307;PMS5003;60257;42.638;23.376;2023-02-15T15:55:45;77.75;61.00;31.00
72307;PMS5003;60257;42.638;23.376;2023-02-15T15:58:14;67.50;54.50;32.00
72307;PMS5003;60257;42.638;23.376;2023-02-15T16:03:24;71.50;56.00;33.50
72307;PMS5003;60257;42.638;23.376;2023-02-15T16:05:51;78.75;61.75;37.25
72307;PMS5003;60257;42.638;23.376;2023-02-15T16:11:09;72.25;58.00;35.25
72307;PMS5003;60257;42.638;23.376;2023-02-15T16:13:39;73.50;55.00;31.00
72307;PMS5003;60257;42.638;23.376;2023-02-15T16:16:06;74.75;59.50;35.50
72307;PMS5003;60257;42.638;23.376;2023-02-15T16:18:32;80.50;62.50;35.00
72307;PMS5003;60257;42.638;23.376;2023-02-15T16:21:03;75.75;59.75;37.75
72307;PMS5003;60257;42.638;23.376;2023-02-15T16:28:56;71.00;54.50;31.25
72307;PMS5003;60257;42.638;23.376;2023-02-15T16:31:21;77.00;58.75;37.00
72307;PMS5003;60257;42.638;23.376;2023-02-15T16:33:47;79.75;65.00;38.50
72307;PMS5003;60257;42.638;23.376;2023-02-15T16:36:23;78.00;61.75;35.50
72307;PMS5003;60257;42.638;23.376;2023-02-15T16:41:26;84.00;63.00;35.00
72307;PMS5003;60257;42.638;23.376;2023-02-15T16:43:56;86.00;68.25;40.50
72307;PMS5003;60257;42.638;23.376;2023-02-15T16:46:36;85.50;66.00;40.75
72307;PMS5003;60257;42.638;23.376;2023-02-15T16:49:06;83.75;66.00;39.00
72307;PMS5003;60257;42.638;23.376;2023-02-15T16:51:41;73.75;59.75;38.00
72307;PMS5003;60257;42.638;23.376;2023-02-15T16:54:14;73.50;59.50;38.00
72307;PMS5003;60257;42.638;23.376;2023-02-15T16:56:44;80.75;65.00;38.25
72307;PMS5003;60257;42.638;23.376;2023-02-15T17:02:13;81.50;66.25;37.50
72307;PMS5003;60257;42.638;23.376;2023-02-15T17:04:45;77.00;56.50;32.50
72307;PMS5003;60257;42.638;23.376;2023-02-15T17:07:30;80.50;63.50;38.75
72307;PMS5003;60257;42.638;23.376;2023-02-15T17:09:56;76.00;59.00;33.25
72307;PMS5003;60257;42.638;23.376;2023-02-15T17:15:33;77.00;60.00;35.50
72307;PMS5003;60257;42.638;23.376;2023-02-15T17:18:03;75.50;58.50;34.00
72307;PMS5003;60257;42.638;23.376;2023-02-15T17:20:33;84.75;66.25;35.50
72307;PMS5003;60257;42.638;23.376;2023-02-15T17:23:03;77.25;61.75;37.00
72307;PMS5003;60257;42.638;23.376;2023-02-15T17:25:33;84.75;64.00;37.25
72307;PMS5003;60257;42.638;23.376;2023-02-15T17:28:04;81.75;65.50;40.00